• Join FlightAware (Why Join?)
  • Login
  • US Flag 
09:50PM EDT


 

Airport Tracker/Info


-or-


 

Live Flight TrackerFlight Track Log ✈ FIN666 ✈ 27-Dec-2013 ✈ EKCH / CPH - EFHK / HEL

Flight Track Log - Related Links

Times and Time Zones

All times are in EST time to prevent confusion due to time zone crossing. See the FIN666 flight status page for this flight to view local times or setup timezone preferences in your user account.

Time Position Orientation Groundspeed Altitude Reporting Facility
EST Latitude Longitude Course Direction KTS MPH feet Rate Location/Type
07:25AM 55.9251 13.2931 49° Northeast  Level Estimated
07:26AM 56.0014 13.4539 50° Northeast  Level Estimated
07:27AM 56.0774 13.6154 50° Northeast  Level Estimated
07:28AM 56.1533 13.7776 50° Northeast  Level Estimated
07:29AM 56.2278 13.9380 50° Northeast  Level Estimated
07:30AM 56.3022 14.0990 50° Northeast  Level Estimated
07:31AM 56.3763 14.2606 50° Northeast  Level Estimated
07:32AM 56.4502 14.4229 50° Northeast  Level Estimated
07:33AM 56.5239 14.5859 51° Northeast  Level Estimated
07:34AM 56.5974 14.7494 51° Northeast  Level Estimated
07:35AM 56.6707 14.9136 51° Northeast  Level Estimated
07:36AM 56.7438 15.0784 51° Northeast  Level Estimated
07:37AM 56.8166 15.2439 51° Northeast  Level Estimated
07:38AM 56.8892 15.4100 51° Northeast  Level Estimated
07:39AM 56.9616 15.5768 51° Northeast  Level Estimated
07:40AM 57.0338 15.7442 52° Northeast  Level Estimated
07:41AM 57.1057 15.9122 52° Northeast  Level Estimated
07:42AM 57.1775 16.0809 52° Northeast  Level Estimated
07:43AM 57.2490 16.2503 52° Northeast  Level Estimated
07:44AM 57.3202 16.4203 52° Northeast  Level Estimated
07:45AM 57.3913 16.5910 52° Northeast  Level Estimated
07:46AM 57.4621 16.7624 52° Northeast  Level Estimated
07:47AM 57.5327 16.9344 53° Northeast  Level Estimated
07:48AM 57.6030 17.1070 53° Northeast  Level Estimated
07:49AM 57.6731 17.2804 53° Northeast  Level Estimated
07:50AM 57.7430 17.4544 53° Northeast  Level Estimated
07:51AM 57.8126 17.6291 53° Northeast  Level Estimated
07:52AM 57.8820 17.8044 53° Northeast  Level Estimated
07:53AM 57.9511 17.9805 53° Northeast  Level Estimated
07:54AM 58.0200 18.1572 54° Northeast  Level Estimated
07:55AM 58.0887 18.3346 54° Northeast  Level Estimated
07:56AM 58.1571 18.5126 54° Northeast  Level Estimated
07:57AM 58.2253 18.6914 54° Northeast  Level Estimated
07:58AM 58.2932 18.8709 54° Northeast  Level Estimated
07:59AM 58.3608 19.0510 54° Northeast  Level Estimated
08:00AM 58.4282 19.2318 55° Northeast  Level Estimated
08:01AM 58.4954 19.4133 55° Northeast  Level Estimated
08:02AM 58.5622 19.5956 55° Northeast  Level Estimated
08:03AM 58.6289 19.7785 55° Northeast  Level Estimated
08:04AM 58.6953 19.9621 55° Northeast  Level Estimated
08:05AM 58.7614 20.1464 55° Northeast  Level Estimated
08:06AM 58.8272 20.3314 55° Northeast  Level Estimated
08:07AM 58.8928 20.5171 56° Northeast  Level Estimated
08:08AM 58.9581 20.7035 56° Northeast  Level Estimated
08:09AM 59.0231 20.8906 56° Northeast  Level Estimated
08:10AM 59.0879 21.0785 56° Northeast  Level Estimated
08:11AM 59.1553 21.2756 56° Northeast  Level Estimated
08:12AM 59.2224 21.4735 56° Northeast  Level Estimated
08:13AM 59.2893 21.6722 57° Northeast  Level Estimated
08:14AM 59.3558 21.8717 57° Northeast  Level Estimated
08:15AM 59.4220 22.0719 57° Northeast  Level Estimated
08:16AM 59.4879 22.2729 57° Northeast  Level Estimated
08:17AM 59.5535 22.4747 57° Northeast  Level Estimated
08:18AM 59.6188 22.6773 57° Northeast  Level Estimated
08:19AM 59.6837 22.8807 58° Northeast  Level Estimated
08:20AM 59.7484 23.0849 58° Northeast  Level Estimated
08:21AM 59.8127 23.2898 58° Northeast  Level Estimated
08:22AM 59.8767 23.4956 58° Northeast  Level Estimated
08:23AM 59.9404 23.7021 58° Northeast  Level Estimated
08:24AM 60.0038 23.9095 58° Northeast  Level Estimated
08:25AM 60.0668 24.1176 59° Northeast  Level Estimated
08:26AM 60.1295 24.3265 59° Northeast  Level Estimated
08:27AM 60.1919 24.5362 59° Northeast  Level Estimated
08:28AM 60.2540 24.7468 59° Northeast  Level Estimated
08:29AM 60.3172 24.9633 59° Northeast  Level Estimated
08:30AM 60.3172 24.9633 37° Northeast  Level Estimated
08:31AM 60.3172 24.9633 37° Northeast  Level Estimated
08:32AM 60.3172 24.9633 37° Northeast  Level Estimated
08:33AM 60.3172 24.9633 37° Northeast  Level Estimated
08:34AM 60.3172 24.9633 37° Northeast  Level Estimated
08:35AM 60.3172 24.9633 37° Northeast  Level Estimated
08:36AM 60.3172 24.9633 37° Northeast  Level Estimated
08:37AM 60.3172 24.9633 37° Northeast  Level Estimated
08:38AM 60.3172 24.9633 37° Northeast  Level Estimated
08:39AM 60.3172 24.9633 37° Northeast  Level Estimated
08:40AM 60.3172 24.9633 37° Northeast  Level Estimated